createdAt,value
2022-11-10T00:00:35.622Z,11.08
2022-11-10T00:03:05.275Z,10.99
2022-11-10T00:05:26.764Z,10.94
2022-11-10T00:07:48.226Z,11.07
2022-11-10T00:10:09.940Z,11.01
2022-11-10T00:12:32.318Z,10.85
2022-11-10T00:15:12.127Z,10.92
2022-11-10T00:17:36.701Z,10.68
2022-11-10T00:19:58.304Z,10.68
2022-11-10T00:22:20.716Z,10.69
2022-11-10T00:24:44.936Z,10.53
2022-11-10T00:27:06.394Z,10.46
2022-11-10T00:29:27.883Z,10.38
2022-11-10T00:31:49.363Z,10.23
2022-11-10T00:34:13.462Z,10.13
2022-11-10T00:36:35.405Z,10.34
2022-11-10T00:38:56.938Z,10.35
2022-11-10T00:41:18.475Z,10.22
2022-11-10T00:43:39.968Z,10.42
2022-11-10T00:46:01.486Z,10.46
2022-11-10T00:48:23.247Z,10.29
2022-11-10T00:50:44.734Z,10.40
2022-11-10T00:53:06.242Z,10.52
2022-11-10T00:55:27.719Z,10.37
2022-11-10T00:57:49.189Z,10.49
2022-11-10T01:00:11.088Z,10.53
2022-11-10T01:02:32.550Z,10.64
2022-11-10T01:04:54.084Z,10.70
2022-11-10T01:07:15.637Z,10.66
2022-11-10T01:09:37.193Z,10.46
2022-11-10T01:11:58.665Z,10.47
2022-11-10T01:14:20.212Z,10.19
2022-11-10T01:16:41.701Z,10.19
2022-11-10T01:19:03.500Z,10.25
2022-11-10T01:21:26.241Z,10.21
2022-11-10T01:23:48.242Z,10.20
2022-11-10T01:26:09.985Z,10.21
2022-11-10T01:28:32.707Z,10.24
2022-11-10T01:31:06.341Z,10.15
2022-11-10T01:33:28.590Z,9.97
2022-11-10T01:35:50.079Z,9.99
2022-11-10T01:38:11.558Z,9.79
2022-11-10T01:40:33.125Z,9.75
2022-11-10T01:42:57.594Z,9.77
2022-11-10T01:45:25.205Z,9.67
2022-11-10T01:47:46.738Z,9.82
2022-11-10T01:50:08.449Z,9.67
2022-11-10T01:52:29.957Z,9.73
2022-11-10T01:54:51.481Z,9.65
2022-11-10T01:57:15.072Z,9.65
2022-11-10T01:59:45.612Z,9.71
2022-11-10T02:02:14.655Z,9.75
2022-11-10T02:04:37.223Z,9.75
2022-11-10T02:06:59.340Z,9.84
2022-11-10T02:09:21.423Z,9.87
2022-11-10T02:11:44.162Z,9.82
2022-11-10T02:14:06.655Z,9.92
2022-11-10T02:16:28.766Z,9.95
2022-11-10T02:18:50.247Z,10.03
2022-11-10T02:21:11.743Z,10.08
2022-11-10T02:23:35.876Z,10.00
2022-11-10T02:25:58.052Z,10.04
2022-11-10T02:28:19.532Z,9.94
2022-11-10T02:30:40.982Z,9.93
2022-11-10T02:33:03.755Z,9.96
2022-11-10T02:35:25.213Z,9.96
2022-11-10T02:37:46.707Z,9.82
2022-11-10T02:40:08.763Z,9.96
2022-11-10T02:42:30.386Z,10.01
2022-11-10T02:44:51.939Z,10.10
2022-11-10T02:47:13.456Z,10.10
2022-11-10T02:49:34.929Z,10.11
2022-11-10T02:51:56.397Z,10.25
2022-11-10T02:54:17.953Z,10.29
2022-11-10T02:56:39.506Z,10.50
2022-11-10T02:59:01.486Z,10.40
2022-11-10T03:01:23.011Z,10.29
2022-11-10T03:03:44.527Z,10.32
2022-11-10T03:06:06.130Z,10.38
2022-11-10T03:08:27.650Z,10.43
2022-11-10T03:10:53.685Z,10.38
2022-11-10T03:13:15.175Z,10.58
2022-11-10T03:15:36.652Z,10.64
2022-11-10T03:18:04.075Z,10.62
2022-11-10T03:20:25.593Z,10.74
2022-11-10T03:22:47.676Z,10.70
2022-11-10T03:25:10.281Z,10.89
2022-11-10T03:27:31.789Z,10.71
2022-11-10T03:29:53.250Z,10.82
2022-11-10T03:32:14.720Z,10.96
2022-11-10T03:34:36.215Z,11.01
2022-11-10T03:36:57.670Z,10.97
2022-11-10T03:39:19.177Z,11.02
2022-11-10T03:41:40.664Z,11.09
2022-11-10T03:44:02.333Z,11.03
2022-11-10T03:46:23.850Z,11.09
2022-11-10T03:48:51.872Z,11.08
2022-11-10T03:51:14.854Z,11.05
2022-11-10T03:53:36.401Z,10.97
2022-11-10T03:56:01.517Z,10.97
2022-11-10T03:58:23.010Z,10.97
2022-11-10T04:00:44.479Z,10.96
2022-11-10T04:03:05.999Z,10.89
2022-11-10T04:05:46.383Z,10.88
2022-11-10T04:08:33.109Z,10.87
2022-11-10T04:10:54.569Z,10.71
2022-11-10T04:13:34.598Z,10.85
2022-11-10T04:15:56.143Z,10.63
2022-11-10T04:18:26.974Z,10.72
2022-11-10T04:20:48.543Z,10.74
2022-11-10T04:23:28.476Z,10.76
2022-11-10T04:26:09.889Z,10.74
2022-11-10T04:28:31.379Z,10.71
2022-11-10T04:30:52.855Z,10.74
2022-11-10T04:33:14.345Z,10.70
2022-11-10T04:35:35.827Z,10.60
2022-11-10T04:37:57.327Z,10.73
2022-11-10T04:40:18.788Z,10.60
2022-11-10T04:42:40.272Z,10.63
2022-11-10T04:45:01.771Z,10.69
2022-11-10T04:47:23.280Z,10.64
2022-11-10T04:49:44.865Z,10.77
2022-11-10T04:52:06.379Z,10.72
2022-11-10T04:54:27.833Z,10.49
2022-11-10T04:56:49.322Z,10.50
2022-11-10T04:59:10.798Z,10.41
2022-11-10T05:01:32.375Z,10.52
2022-11-10T05:03:54.964Z,10.42
2022-11-10T05:06:16.775Z,10.42
2022-11-10T05:08:39.774Z,10.47
2022-11-10T05:11:01.287Z,10.34
2022-11-10T05:13:23.066Z,10.31
2022-11-10T05:15:45.554Z,10.22
2022-11-10T05:18:07.043Z,10.39
2022-11-10T05:20:28.631Z,10.33
2022-11-10T05:23:10.196Z,10.36
2022-11-10T05:25:31.656Z,10.44
2022-11-10T05:27:53.142Z,10.60
2022-11-10T05:30:14.884Z,10.68
2022-11-10T05:32:36.838Z,10.69
2022-11-10T05:34:58.289Z,10.75
2022-11-10T05:37:19.787Z,10.52
2022-11-10T05:39:41.238Z,10.55
2022-11-10T05:42:02.791Z,10.67
2022-11-10T05:44:24.266Z,10.61
2022-11-10T05:46:45.764Z,10.77
2022-11-10T05:49:07.432Z,10.62
2022-11-10T05:51:28.955Z,10.62
2022-11-10T05:53:50.456Z,10.67
2022-11-10T05:56:11.935Z,10.51
2022-11-10T05:58:33.444Z,10.39
2022-11-10T06:00:54.912Z,10.25
2022-11-10T06:03:18.637Z,10.18
2022-11-10T06:05:40.321Z,10.28
2022-11-10T06:08:03.987Z,10.27
2022-11-10T06:10:25.789Z,10.41
2022-11-10T06:12:47.303Z,10.50
2022-11-10T06:15:10.179Z,10.40
2022-11-10T06:17:31.861Z,10.20
2022-11-10T06:19:53.415Z,10.10
2022-11-10T06:22:14.962Z,10.11
2022-11-10T06:24:36.428Z,10.11
2022-11-10T06:26:57.927Z,10.32
2022-11-10T06:29:24.103Z,10.32
2022-11-10T06:31:47.992Z,10.20
2022-11-10T06:34:09.573Z,10.15
2022-11-10T06:36:31.125Z,10.17
2022-11-10T06:38:52.592Z,10.11
2022-11-10T06:41:14.104Z,10.11
2022-11-10T06:43:35.598Z,10.12
2022-11-10T06:45:57.295Z,10.18
2022-11-10T06:48:19.469Z,10.22
2022-11-10T06:50:40.991Z,10.24
2022-11-10T06:53:02.786Z,10.26
2022-11-10T06:55:24.610Z,10.38
2022-11-10T06:57:46.095Z,10.29
2022-11-10T07:00:08.272Z,10.53
2022-11-10T07:02:29.762Z,10.62
2022-11-10T07:04:51.244Z,10.86
2022-11-10T07:07:12.953Z,10.80
2022-11-10T07:09:34.422Z,10.77
2022-11-10T07:11:57.349Z,10.95
2022-11-10T07:14:19.140Z,11.14
2022-11-10T07:16:40.793Z,11.27
2022-11-10T07:19:02.272Z,11.37
2022-11-10T07:21:23.832Z,11.50
2022-11-10T07:23:46.831Z,11.64
2022-11-10T07:26:08.312Z,11.37
2022-11-10T07:28:29.904Z,11.09
2022-11-10T07:30:51.413Z,11.18
2022-11-10T07:33:14.873Z,10.93
2022-11-10T07:35:36.494Z,10.73
2022-11-10T07:38:01.185Z,10.80
2022-11-10T07:40:23.294Z,10.69
2022-11-10T07:42:44.764Z,10.83
2022-11-10T07:45:06.983Z,10.76
2022-11-10T07:47:28.455Z,10.68
2022-11-10T07:49:49.938Z,10.53
2022-11-10T07:52:11.441Z,10.47
2022-11-10T07:54:32.911Z,10.63
2022-11-10T07:56:54.384Z,10.72
2022-11-10T07:59:15.868Z,10.73
2022-11-10T08:01:37.400Z,10.77
2022-11-10T08:03:58.883Z,10.88
2022-11-10T08:06:20.634Z,10.97
2022-11-10T08:08:42.184Z,11.09
2022-11-10T08:11:03.689Z,11.08
2022-11-10T08:13:25.361Z,11.06
2022-11-10T08:15:47.255Z,11.07
2022-11-10T08:18:17.444Z,10.98
2022-11-10T08:20:38.974Z,11.17
2022-11-10T08:23:06.343Z,11.24
2022-11-10T08:25:34.460Z,11.38
2022-11-10T08:28:01.248Z,11.27
2022-11-10T08:30:22.752Z,11.34
2022-11-10T08:32:44.226Z,11.29
2022-11-10T08:35:06.156Z,11.31
2022-11-10T08:37:28.024Z,11.25
2022-11-10T08:39:49.480Z,11.26
2022-11-10T08:42:11.011Z,11.32
2022-11-10T08:44:32.476Z,11.31
2022-11-10T08:46:53.971Z,11.21
2022-11-10T08:49:15.491Z,11.51
2022-11-10T08:51:39.212Z,11.43
2022-11-10T08:54:00.945Z,11.53
2022-11-10T08:56:22.470Z,11.62
2022-11-10T08:58:52.856Z,11.54
2022-11-10T09:01:14.774Z,11.56
2022-11-10T09:03:36.430Z,11.45
2022-11-10T09:05:58.865Z,11.50
2022-11-10T09:08:20.479Z,11.56
2022-11-10T09:10:47.574Z,11.77
2022-11-10T09:13:11.164Z,11.91
2022-11-10T09:15:34.640Z,11.95
2022-11-10T09:18:03.963Z,12.01
2022-11-10T09:20:26.951Z,11.98
2022-11-10T09:22:48.427Z,12.00
2022-11-10T09:25:09.939Z,11.82
2022-11-10T09:27:34.733Z,11.86
2022-11-10T09:29:56.365Z,11.80
2022-11-10T09:32:17.821Z,11.89
2022-11-10T09:34:39.377Z,12.07
2022-11-10T09:37:00.845Z,12.22
2022-11-10T09:39:22.344Z,12.18
2022-11-10T09:41:44.650Z,12.29
2022-11-10T09:44:16.465Z,12.26
2022-11-10T09:46:45.235Z,12.27
2022-11-10T09:49:23.769Z,12.28
2022-11-10T09:51:48.460Z,12.11
2022-11-10T09:54:40.327Z,12.05
2022-11-10T09:57:05.181Z,12.09
2022-11-10T09:59:34.812Z,12.18
2022-11-10T10:02:03.832Z,12.15
2022-11-10T10:04:51.928Z,12.25
2022-11-10T10:07:26.458Z,12.27
2022-11-10T10:10:16.087Z,12.30
2022-11-10T10:12:46.193Z,12.26
2022-11-10T10:15:35.372Z,12.45
2022-11-10T10:18:18.221Z,12.63
2022-11-10T10:21:01.295Z,12.79
2022-11-10T10:24:07.683Z,12.96
2022-11-10T10:26:46.723Z,13.19
2022-11-10T10:29:13.718Z,13.42
2022-11-10T10:31:50.013Z,13.55
2022-11-10T10:34:17.583Z,13.70
2022-11-10T10:36:39.396Z,13.67
2022-11-10T10:39:05.823Z,13.58
2022-11-10T10:41:29.949Z,13.40
2022-11-10T10:43:54.572Z,13.24
2022-11-10T10:46:16.319Z,13.34
2022-11-10T10:48:37.837Z,13.33
2022-11-10T10:50:59.339Z,13.42
2022-11-10T10:53:23.167Z,13.41
2022-11-10T10:56:16.889Z,13.43
2022-11-10T10:58:53.273Z,13.32
2022-11-10T11:03:46.251Z,13.59
2022-11-10T11:06:23.081Z,13.81
2022-11-10T11:09:23.823Z,13.41
2022-11-10T11:11:59.987Z,13.32
2022-11-10T11:14:26.981Z,13.21
2022-11-10T11:16:52.784Z,13.16
2022-11-10T11:19:15.147Z,13.19
2022-11-10T11:21:57.833Z,13.20
2022-11-10T11:24:23.842Z,13.09
2022-11-10T11:26:48.013Z,13.05
2022-11-10T11:29:47.515Z,13.07
2022-11-10T11:32:27.552Z,13.04
2022-11-10T11:34:58.187Z,13.07
2022-11-10T11:37:36.137Z,13.31
2022-11-10T11:40:18.748Z,13.56
2022-11-10T11:42:46.951Z,13.53
2022-11-10T11:45:14.624Z,13.83
2022-11-10T11:48:12.027Z,13.76
2022-11-10T11:50:43.646Z,13.81
2022-11-10T11:53:10.955Z,13.87
2022-11-10T11:55:39.637Z,13.89
2022-11-10T11:58:32.124Z,13.84
2022-11-10T12:01:18.705Z,13.64
2022-11-10T12:03:49.194Z,13.48
2022-11-10T12:06:26.499Z,13.07
2022-11-10T12:09:35.527Z,13.01
2022-11-10T12:12:17.236Z,13.19
2022-11-10T12:14:58.390Z,13.16
2022-11-10T12:18:01.382Z,13.09
2022-11-10T12:20:46.872Z,13.04
2022-11-10T12:23:26.479Z,13.02
2022-11-10T12:26:10.786Z,13.13
2022-11-10T12:28:45.099Z,13.07
2022-11-10T12:31:15.444Z,13.05
2022-11-10T12:33:45.026Z,12.84
2022-11-10T12:36:12.203Z,12.77
2022-11-10T12:39:01.579Z,12.58
2022-11-10T12:41:23.510Z,12.60
2022-11-10T12:44:07.814Z,12.52
2022-11-10T12:46:29.364Z,12.40
2022-11-10T12:49:00.425Z,12.41
2022-11-10T12:51:33.504Z,12.32
2022-11-10T12:53:55.238Z,12.35
2022-11-10T12:56:25.520Z,12.28
2022-11-10T12:58:46.997Z,12.20
2022-11-10T13:01:18.650Z,12.12
2022-11-10T13:03:56.566Z,12.19
2022-11-10T13:06:30.002Z,12.42
2022-11-10T13:08:51.857Z,12.47
2022-11-10T13:11:13.283Z,12.53
2022-11-10T13:13:53.193Z,12.64
2022-11-10T13:16:41.436Z,12.84
2022-11-10T13:19:04.330Z,13.08
2022-11-10T13:22:04.838Z,13.11
2022-11-10T13:24:37.248Z,13.07
2022-11-10T13:27:36.208Z,12.90
2022-11-10T13:29:58.760Z,12.86
2022-11-10T13:32:35.903Z,12.83
2022-11-10T13:35:28.155Z,12.95
2022-11-10T13:37:50.811Z,12.94
2022-11-10T13:40:18.298Z,13.00
2022-11-10T13:42:43.266Z,13.01
2022-11-10T13:45:36.073Z,12.97
2022-11-10T13:48:05.814Z,13.04
2022-11-10T13:50:48.980Z,13.02
2022-11-10T13:53:41.449Z,12.90
2022-11-10T13:56:21.720Z,13.08
2022-11-10T13:58:44.733Z,13.20
2022-11-10T14:01:15.352Z,12.97
2022-11-10T14:03:45.842Z,12.92
2022-11-10T14:06:13.675Z,12.93
2022-11-10T14:08:38.457Z,12.88
2022-11-10T14:11:07.214Z,13.12
2022-11-10T14:13:28.774Z,12.96
2022-11-10T14:15:54.167Z,12.89
2022-11-10T14:18:25.127Z,12.95
2022-11-10T14:20:52.569Z,13.22
2022-11-10T14:23:42.331Z,13.24
2022-11-10T14:26:06.792Z,13.34
2022-11-10T14:28:30.803Z,13.34
2022-11-10T14:30:54.700Z,13.39
2022-11-10T14:33:16.362Z,13.50
2022-11-10T14:35:46.887Z,13.42
2022-11-10T14:38:20.581Z,13.40
2022-11-10T14:40:42.638Z,13.47
2022-11-10T14:43:04.153Z,13.41
2022-11-10T14:45:29.235Z,13.32
2022-11-10T14:47:53.922Z,13.35
2022-11-10T14:50:17.235Z,13.18
2022-11-10T14:52:41.036Z,13.11
2022-11-10T14:55:07.292Z,13.30
2022-11-10T14:57:28.785Z,13.34
2022-11-10T14:59:52.285Z,13.33
2022-11-10T15:02:19.461Z,13.45
2022-11-10T15:04:45.774Z,13.52
2022-11-10T15:07:07.774Z,13.35
2022-11-10T15:09:31.452Z,13.22
2022-11-10T15:12:19.850Z,13.10
2022-11-10T15:14:45.552Z,13.06
2022-11-10T15:17:10.143Z,12.91
2022-11-10T15:19:36.583Z,12.89
2022-11-10T15:22:16.372Z,13.05
2022-11-10T15:24:42.530Z,13.02
2022-11-10T15:27:04.139Z,12.89
2022-11-10T15:29:25.763Z,12.72
2022-11-10T15:31:48.066Z,12.71
2022-11-10T15:34:29.876Z,12.86
2022-11-10T15:37:09.347Z,12.90
2022-11-10T15:39:30.959Z,12.82
2022-11-10T15:41:58.181Z,12.59
2022-11-10T15:44:24.294Z,12.49
2022-11-10T15:46:46.792Z,12.59
2022-11-10T15:49:22.565Z,12.80
2022-11-10T15:51:44.067Z,12.64
2022-11-10T15:54:10.650Z,12.74
2022-11-10T15:56:32.106Z,12.68
2022-11-10T15:59:02.145Z,12.81
2022-11-10T16:01:24.271Z,12.73
2022-11-10T16:03:46.176Z,12.77
2022-11-10T16:06:11.812Z,12.87
2022-11-10T16:08:34.677Z,12.81
2022-11-10T16:10:57.050Z,12.75
2022-11-10T16:13:28.836Z,12.63
2022-11-10T16:15:50.867Z,12.66
2022-11-10T16:18:14.767Z,12.69
2022-11-10T16:20:36.299Z,12.60
2022-11-10T16:22:57.863Z,12.44
2022-11-10T16:25:25.171Z,12.47
2022-11-10T16:27:49.105Z,12.55
2022-11-10T16:30:14.051Z,12.53
2022-11-10T16:32:35.552Z,12.48
2022-11-10T16:34:57.039Z,12.55
2022-11-10T16:37:18.782Z,12.52
2022-11-10T16:39:40.284Z,12.38
2022-11-10T16:42:01.729Z,12.28
2022-11-10T16:44:25.262Z,12.28
2022-11-10T16:46:52.353Z,12.17
2022-11-10T16:49:35.175Z,12.12
2022-11-10T16:51:56.662Z,12.14
2022-11-10T16:54:18.212Z,12.03
2022-11-10T16:56:39.778Z,11.90
2022-11-10T16:59:01.382Z,11.96
2022-11-10T17:01:28.006Z,11.89
2022-11-10T17:03:52.696Z,11.70
2022-11-10T17:06:15.138Z,11.69
2022-11-10T17:08:36.739Z,11.40
2022-11-10T17:10:58.281Z,11.37
2022-11-10T17:13:19.760Z,11.22
2022-11-10T17:15:41.618Z,11.05
2022-11-10T17:18:06.020Z,11.08
2022-11-10T17:20:36.129Z,11.08
2022-11-10T17:22:57.975Z,10.99
2022-11-10T17:25:28.780Z,11.01
2022-11-10T17:27:50.421Z,10.93
2022-11-10T17:30:13.210Z,11.01
2022-11-10T17:33:03.175Z,10.98
2022-11-10T17:35:16.221Z,11.12
2022-11-10T17:37:39.475Z,10.87
2022-11-10T17:40:17.400Z,10.90
2022-11-10T17:42:39.153Z,10.88
2022-11-10T17:45:00.653Z,10.78
2022-11-10T17:47:22.148Z,10.76
2022-11-10T17:49:43.624Z,10.71
2022-11-10T17:52:05.156Z,10.62
2022-11-10T17:54:26.686Z,10.49
2022-11-10T17:56:48.165Z,10.53
2022-11-10T17:59:09.632Z,10.66
2022-11-10T18:01:31.200Z,10.58
2022-11-10T18:03:53.275Z,10.58
2022-11-10T18:06:20.088Z,10.41
2022-11-10T18:08:42.239Z,10.41
2022-11-10T18:11:03.765Z,10.41
2022-11-10T18:13:25.417Z,10.42
2022-11-10T18:15:48.217Z,10.35
2022-11-10T18:18:13.808Z,10.22
2022-11-10T18:20:35.858Z,10.18
2022-11-10T18:22:57.325Z,10.11
2022-11-10T18:25:18.896Z,10.09
2022-11-10T18:27:40.398Z,9.94
2022-11-10T18:30:03.021Z,10.01
2022-11-10T18:32:24.678Z,9.97
2022-11-10T18:34:46.201Z,9.95
2022-11-10T18:37:07.913Z,9.85
2022-11-10T18:39:29.420Z,9.80
2022-11-10T18:41:52.248Z,9.74
2022-11-10T18:44:13.766Z,9.77
2022-11-10T18:46:35.257Z,9.78
2022-11-10T18:48:56.696Z,9.85
2022-11-10T18:51:18.271Z,9.95
2022-11-10T18:53:39.794Z,9.83
2022-11-10T18:56:01.315Z,9.82
2022-11-10T18:58:22.824Z,9.98
2022-11-10T19:00:44.318Z,9.83
2022-11-10T19:03:05.771Z,9.83
2022-11-10T19:05:28.514Z,9.87
2022-11-10T19:07:49.989Z,9.80
2022-11-10T19:10:11.711Z,9.90
2022-11-10T19:12:33.244Z,9.69
2022-11-10T19:14:54.796Z,9.60
2022-11-10T19:17:17.059Z,9.61
2022-11-10T19:19:38.521Z,9.51
2022-11-10T19:22:00.768Z,9.63
2022-11-10T19:24:28.141Z,9.69
2022-11-10T19:26:51.680Z,9.87
2022-11-10T19:29:15.232Z,9.92
2022-11-10T19:31:36.846Z,10.01
2022-11-10T19:33:58.630Z,10.18
2022-11-10T19:36:22.504Z,10.21
2022-11-10T19:38:43.973Z,10.35
2022-11-10T19:41:09.072Z,10.44
2022-11-10T19:43:31.036Z,10.44
2022-11-10T19:45:52.533Z,10.47
2022-11-10T19:48:14.472Z,10.63
2022-11-10T19:50:36.006Z,10.60
2022-11-10T19:52:57.463Z,10.75
2022-11-10T19:55:18.919Z,10.72
2022-11-10T19:57:40.381Z,10.65
2022-11-10T20:00:01.977Z,10.61
2022-11-10T20:02:23.472Z,10.63
2022-11-10T20:05:03.222Z,10.62
2022-11-10T20:07:43.420Z,10.59
2022-11-10T20:10:05.502Z,10.61
2022-11-10T20:12:26.957Z,10.71
2022-11-10T20:14:48.463Z,10.70
2022-11-10T20:17:09.924Z,10.78
2022-11-10T20:19:32.366Z,10.90
2022-11-10T20:21:55.960Z,10.60
2022-11-10T20:24:17.498Z,10.46
2022-11-10T20:26:39.049Z,10.55
2022-11-10T20:29:00.561Z,10.50
2022-11-10T20:31:24.884Z,10.54
2022-11-10T20:33:51.377Z,10.55
2022-11-10T20:36:20.860Z,10.63
2022-11-10T20:38:43.333Z,10.65
2022-11-10T20:41:07.940Z,10.57
2022-11-10T20:43:29.524Z,10.55
2022-11-10T20:45:52.591Z,10.39
2022-11-10T20:48:14.694Z,10.40
2022-11-10T20:50:39.884Z,10.27
2022-11-10T20:53:01.572Z,10.22
2022-11-10T20:55:51.493Z,10.24
2022-11-10T20:58:04.650Z,10.21
2022-11-10T21:00:26.121Z,10.28
2022-11-10T21:02:47.594Z,10.24
2022-11-10T21:05:09.596Z,10.13
2022-11-10T21:07:31.169Z,10.10
2022-11-10T21:09:52.774Z,10.09
2022-11-10T21:12:32.672Z,10.09
2022-11-10T21:14:54.146Z,10.01
2022-11-10T21:17:15.636Z,10.11
2022-11-10T21:19:37.218Z,10.08
2022-11-10T21:21:58.738Z,9.99
2022-11-10T21:24:20.552Z,10.17
2022-11-10T21:26:42.037Z,10.18
2022-11-10T21:29:04.842Z,10.24
2022-11-10T21:31:26.989Z,10.22
2022-11-10T21:33:49.636Z,10.25
2022-11-10T21:36:11.350Z,10.22
2022-11-10T21:38:33.496Z,10.37
2022-11-10T21:40:57.477Z,10.33
2022-11-10T21:43:19.054Z,10.38
2022-11-10T21:45:40.678Z,10.42
2022-11-10T21:48:03.111Z,10.34
2022-11-10T21:50:24.628Z,10.43
2022-11-10T21:52:46.138Z,10.19
2022-11-10T21:55:08.313Z,10.11
2022-11-10T21:57:29.841Z,10.15
2022-11-10T21:59:51.424Z,10.08
2022-11-10T22:02:14.678Z,10.04
2022-11-10T22:04:36.500Z,9.91
2022-11-10T22:07:16.703Z,9.86
2022-11-10T22:09:56.816Z,9.85
2022-11-10T22:12:36.603Z,9.88
2022-11-10T22:15:16.507Z,9.79
2022-11-10T22:17:56.676Z,9.80
2022-11-10T22:20:18.201Z,9.66
2022-11-10T22:22:39.685Z,9.55
2022-11-10T22:25:01.182Z,9.60
2022-11-10T22:27:22.664Z,9.71
2022-11-10T22:29:44.141Z,9.58
2022-11-10T22:32:05.658Z,9.65
2022-11-10T22:34:27.230Z,9.61
2022-11-10T22:36:52.505Z,9.49
2022-11-10T22:39:14.056Z,9.48
2022-11-10T22:41:53.965Z,9.42
2022-11-10T22:44:15.504Z,9.41
2022-11-10T22:46:37.987Z,9.56
2022-11-10T22:49:00.107Z,9.59
2022-11-10T22:51:21.644Z,9.46
2022-11-10T22:53:43.306Z,9.35
2022-11-10T22:56:05.225Z,9.33
2022-11-10T22:58:26.711Z,9.29
2022-11-10T23:00:48.196Z,9.39
2022-11-10T23:03:09.712Z,9.43
2022-11-10T23:05:37.499Z,9.29
2022-11-10T23:07:58.975Z,9.27
2022-11-10T23:10:20.428Z,9.25
2022-11-10T23:12:41.900Z,9.15
2022-11-10T23:15:03.563Z,9.20
2022-11-10T23:17:25.034Z,9.22
2022-11-10T23:19:46.535Z,8.96
2022-11-10T23:22:07.995Z,8.97
2022-11-10T23:24:30.383Z,8.87
2022-11-10T23:26:51.821Z,8.77
2022-11-10T23:29:13.350Z,8.78
2022-11-10T23:31:34.804Z,8.72
2022-11-10T23:33:57.837Z,8.72
2022-11-10T23:36:21.128Z,8.69
2022-11-10T23:38:43.217Z,8.69
2022-11-10T23:41:06.554Z,8.52
2022-11-10T23:43:29.035Z,8.27
2022-11-10T23:46:06.503Z,8.46
2022-11-10T23:48:28.902Z,8.30
2022-11-10T23:50:50.946Z,8.04
2022-11-10T23:53:13.092Z,8.20
2022-11-10T23:55:34.810Z,8.16
2022-11-10T23:57:56.300Z,8.13
